createdAt,value
2019-05-05T00:02:31.168Z,3.27
2019-05-05T00:05:04.837Z,4.28
2019-05-05T00:07:32.124Z,3.42
2019-05-05T00:09:59.325Z,3.10
2019-05-05T00:12:28.340Z,4.87
2019-05-05T00:15:06.247Z,4.92
2019-05-05T00:17:34.259Z,4.37
2019-05-05T00:20:01.559Z,4.75
2019-05-05T00:22:28.852Z,4.30
2019-05-05T00:24:56.101Z,4.33
2019-05-05T00:27:25.284Z,3.52
2019-05-05T00:29:52.212Z,5.25
2019-05-05T00:32:19.441Z,5.70
2019-05-05T00:34:46.710Z,5.85
2019-05-05T00:37:15.227Z,7.10
2019-05-05T00:39:45.000Z,6.37
2019-05-05T00:42:11.556Z,4.85
2019-05-05T00:44:38.827Z,5.40
2019-05-05T00:47:14.605Z,5.53
2019-05-05T00:49:48.562Z,4.65
2019-05-05T00:52:14.167Z,6.67
2019-05-05T00:54:41.536Z,6.22
2019-05-05T00:57:09.055Z,5.22
2019-05-05T00:59:36.232Z,5.00
2019-05-05T01:02:24.950Z,4.75
2019-05-05T01:05:09.921Z,8.68
2019-05-05T01:07:37.286Z,5.65
2019-05-05T01:10:07.765Z,4.05
2019-05-05T01:12:35.010Z,3.65
2019-05-05T01:15:04.492Z,3.65
2019-05-05T01:17:31.304Z,3.30
2019-05-05T01:20:03.465Z,3.20
2019-05-05T01:22:27.476Z,3.70
2019-05-05T01:24:55.548Z,4.55
2019-05-05T01:27:25.219Z,6.17
2019-05-05T01:29:51.977Z,6.62
2019-05-05T01:32:27.081Z,4.20
2019-05-05T01:34:54.928Z,4.58
2019-05-05T01:37:25.443Z,6.40
2019-05-05T01:40:04.987Z,7.65
2019-05-05T01:42:32.326Z,5.50
2019-05-05T01:44:59.520Z,3.92
2019-05-05T01:47:26.744Z,3.58
2019-05-05T01:49:54.501Z,4.05
2019-05-05T01:52:21.820Z,5.12
2019-05-05T01:54:49.037Z,3.50
2019-05-05T01:57:16.228Z,5.95
2019-05-05T01:59:44.761Z,4.03
2019-05-05T02:02:14.435Z,4.28
2019-05-05T02:04:41.296Z,4.08
2019-05-05T02:07:08.528Z,4.97
2019-05-05T02:09:35.720Z,5.30
2019-05-05T02:12:04.983Z,4.30
2019-05-05T02:14:31.948Z,3.72
2019-05-05T02:16:59.401Z,5.53
2019-05-05T02:19:26.596Z,4.75
2019-05-05T02:21:54.732Z,5.05
2019-05-05T02:24:22.177Z,4.90
2019-05-05T02:26:49.446Z,4.45
2019-05-05T02:29:18.680Z,4.50
2019-05-05T02:32:06.190Z,5.78
2019-05-05T02:34:35.918Z,4.55
2019-05-05T02:37:05.412Z,4.25
2019-05-05T02:39:35.265Z,4.97
2019-05-05T02:42:01.536Z,3.00
2019-05-05T02:44:28.797Z,3.00
2019-05-05T02:47:00.692Z,2.92
2019-05-05T02:49:28.195Z,2.50
2019-05-05T02:51:55.481Z,2.27
2019-05-05T02:54:24.835Z,2.95
2019-05-05T02:56:54.068Z,2.75
2019-05-05T02:59:29.201Z,2.40
2019-05-05T03:02:00.911Z,2.55
2019-05-05T03:04:28.180Z,1.87
2019-05-05T03:06:55.450Z,1.60
2019-05-05T03:09:24.337Z,1.22
2019-05-05T03:11:51.620Z,1.07
2019-05-05T03:14:19.158Z,1.60
2019-05-05T03:16:46.550Z,1.07
2019-05-05T03:19:14.246Z,0.65
2019-05-05T03:21:41.619Z,0.78
2019-05-05T03:24:08.954Z,0.93
2019-05-05T03:26:36.252Z,0.93
2019-05-05T03:29:05.094Z,0.80
2019-05-05T03:31:35.234Z,0.80
2019-05-05T03:34:01.386Z,0.90
2019-05-05T03:36:28.662Z,0.70
2019-05-05T03:38:56.052Z,0.88
2019-05-05T03:41:40.304Z,1.10
2019-05-05T03:44:09.460Z,2.70
2019-05-05T03:46:36.925Z,2.75
2019-05-05T03:49:04.796Z,2.75
2019-05-05T03:51:34.522Z,2.20
2019-05-05T03:54:04.222Z,2.67
2019-05-05T03:56:31.444Z,2.08
2019-05-05T03:58:58.674Z,1.82
2019-05-05T04:01:27.827Z,2.12
2019-05-05T04:03:57.068Z,3.00
2019-05-05T04:06:39.390Z,2.58
2019-05-05T04:09:07.553Z,2.90
2019-05-05T04:11:34.749Z,1.85
2019-05-05T04:14:03.671Z,1.90
2019-05-05T04:16:35.268Z,1.10
2019-05-05T04:19:04.160Z,1.00
2019-05-05T04:21:36.035Z,1.10
2019-05-05T04:24:00.315Z,0.95
2019-05-05T04:26:27.608Z,1.00
2019-05-05T04:28:54.977Z,0.70
2019-05-05T04:31:24.104Z,0.90
2019-05-05T04:33:51.417Z,0.60
2019-05-05T04:36:19.096Z,0.62
2019-05-05T04:38:46.292Z,0.70
2019-05-05T04:41:14.018Z,0.62
2019-05-05T04:43:41.421Z,0.78
2019-05-05T04:46:08.879Z,1.20
2019-05-05T04:48:37.744Z,1.07
2019-05-05T04:51:06.648Z,1.10
2019-05-05T04:53:38.217Z,0.72
2019-05-05T04:56:05.480Z,0.70
2019-05-05T04:58:33.603Z,1.00
2019-05-05T05:01:01.141Z,1.25
2019-05-05T05:03:34.675Z,1.10
2019-05-05T05:06:09.397Z,1.80
2019-05-05T05:08:36.718Z,1.32
2019-05-05T05:11:03.912Z,1.20
2019-05-05T05:13:31.113Z,1.00
2019-05-05T05:15:58.344Z,0.98
2019-05-05T05:18:25.608Z,1.30
2019-05-05T05:20:54.763Z,1.30
2019-05-05T05:23:21.749Z,1.10
2019-05-05T05:25:49.044Z,1.20
2019-05-05T05:28:16.500Z,1.40
2019-05-05T05:30:43.980Z,1.75
2019-05-05T05:33:11.581Z,1.72
2019-05-05T05:35:38.800Z,2.47
2019-05-05T05:38:05.992Z,2.05
2019-05-05T05:40:34.868Z,2.30
2019-05-05T05:43:04.693Z,2.22
2019-05-05T05:45:39.387Z,2.90
2019-05-05T05:48:10.796Z,2.70
2019-05-05T05:50:44.215Z,2.75
2019-05-05T05:53:11.320Z,2.37
2019-05-05T05:55:38.535Z,3.10
2019-05-05T05:58:05.821Z,2.37
2019-05-05T06:00:34.411Z,2.50
2019-05-05T06:03:03.731Z,2.95
2019-05-05T06:05:30.732Z,3.20
2019-05-05T06:07:58.033Z,3.10
2019-05-05T06:10:27.453Z,2.87
2019-05-05T06:12:54.793Z,3.00
2019-05-05T06:15:24.279Z,2.47
2019-05-05T06:17:51.092Z,1.98
2019-05-05T06:20:18.288Z,1.77
2019-05-05T06:22:45.604Z,2.00
2019-05-05T06:25:15.915Z,1.60
2019-05-05T06:27:41.909Z,1.50
2019-05-05T06:30:09.180Z,1.50
2019-05-05T06:32:36.400Z,1.40
2019-05-05T06:35:04.221Z,2.35
2019-05-05T06:37:31.455Z,2.22
2019-05-05T06:40:00.609Z,2.10
2019-05-05T06:42:45.821Z,2.45
2019-05-05T06:45:17.704Z,1.27
2019-05-05T06:47:44.928Z,2.58
2019-05-05T06:50:13.518Z,3.20
2019-05-05T06:52:44.515Z,3.60
2019-05-05T06:55:10.140Z,2.87
2019-05-05T06:57:37.365Z,2.77
2019-05-05T07:00:05.340Z,1.60
2019-05-05T07:02:34.251Z,1.30
2019-05-05T07:05:03.932Z,1.45
2019-05-05T07:07:30.517Z,1.80
2019-05-05T07:09:57.742Z,1.45
2019-05-05T07:12:24.941Z,1.10
2019-05-05T07:14:53.831Z,1.40
2019-05-05T07:17:21.216Z,1.70
2019-05-05T07:19:48.516Z,1.67
2019-05-05T07:22:17.706Z,1.67
2019-05-05T07:24:44.733Z,1.30
2019-05-05T07:27:13.859Z,1.12
2019-05-05T07:29:40.868Z,1.12
2019-05-05T07:32:08.325Z,2.40
2019-05-05T07:34:46.083Z,2.47
2019-05-05T07:37:14.328Z,1.72
2019-05-05T07:39:41.683Z,1.80
2019-05-05T07:42:08.957Z,2.00
2019-05-05T07:44:36.243Z,1.80
2019-05-05T07:47:03.705Z,1.95
2019-05-05T07:49:31.217Z,2.00
2019-05-05T07:51:58.690Z,1.22
2019-05-05T07:54:25.962Z,2.10
2019-05-05T07:56:53.864Z,2.30
2019-05-05T07:59:23.535Z,2.62
2019-05-05T08:01:50.249Z,2.22
2019-05-05T08:04:17.680Z,3.33
2019-05-05T08:06:44.992Z,3.80
2019-05-05T08:09:14.442Z,3.00
2019-05-05T08:11:43.423Z,4.53
2019-05-05T08:14:10.464Z,7.00
2019-05-05T08:16:44.063Z,4.25
2019-05-05T08:19:29.272Z,5.28
2019-05-05T08:21:56.588Z,6.08
2019-05-05T08:24:28.326Z,5.78
2019-05-05T08:27:09.486Z,6.75
2019-05-05T08:29:38.458Z,4.15
2019-05-05T08:32:23.900Z,5.10
2019-05-05T08:34:59.747Z,5.22
2019-05-05T08:37:20.224Z,5.78
2019-05-05T08:39:47.841Z,4.70
2019-05-05T08:42:15.321Z,4.95
2019-05-05T08:44:44.747Z,3.42
2019-05-05T08:47:13.913Z,2.70
2019-05-05T08:49:41.057Z,4.33
2019-05-05T08:52:08.467Z,3.47
2019-05-05T08:54:37.505Z,3.08
2019-05-05T08:57:04.856Z,3.80
2019-05-05T08:59:33.761Z,4.58
2019-05-05T09:02:01.240Z,4.92
2019-05-05T09:04:28.560Z,3.35
2019-05-05T09:06:55.956Z,3.40
2019-05-05T09:09:24.160Z,3.60
2019-05-05T09:11:51.596Z,3.60
2019-05-05T09:14:18.916Z,3.62
2019-05-05T09:16:46.365Z,4.05
2019-05-05T09:19:23.970Z,3.52
2019-05-05T09:21:51.553Z,4.30
2019-05-05T09:24:35.621Z,5.05
2019-05-05T09:27:14.213Z,4.75
2019-05-05T09:29:44.062Z,6.20
2019-05-05T09:32:13.720Z,4.28
2019-05-05T09:34:40.421Z,3.67
2019-05-05T09:37:08.058Z,5.60
2019-05-05T09:39:35.841Z,5.65
2019-05-05T09:42:04.109Z,4.75
2019-05-05T09:44:31.555Z,4.40
2019-05-05T09:46:58.872Z,6.60
2019-05-05T09:49:26.250Z,5.90
2019-05-05T09:51:54.485Z,5.47
2019-05-05T09:54:24.148Z,4.42
2019-05-05T09:56:51.205Z,5.28
2019-05-05T09:59:18.553Z,5.78
2019-05-05T10:01:46.141Z,5.97
2019-05-05T10:04:14.070Z,5.80
2019-05-05T10:06:41.460Z,5.12
2019-05-05T10:09:09.297Z,4.28
2019-05-05T10:11:36.865Z,3.85
2019-05-05T10:14:04.488Z,2.95
2019-05-05T10:16:31.809Z,3.25
2019-05-05T10:18:59.191Z,4.42
2019-05-05T10:21:26.521Z,2.87
2019-05-05T10:23:55.620Z,2.80
2019-05-05T10:26:23.865Z,3.62
2019-05-05T10:28:51.293Z,3.00
2019-05-05T10:31:18.981Z,4.62
2019-05-05T10:33:54.024Z,3.08
2019-05-05T10:36:21.377Z,3.65
2019-05-05T10:38:59.577Z,3.20
2019-05-05T10:41:26.909Z,5.08
2019-05-05T10:43:54.276Z,3.20
2019-05-05T10:46:23.523Z,2.77
2019-05-05T10:48:50.898Z,3.67
2019-05-05T10:51:18.230Z,4.92
2019-05-05T10:53:46.017Z,3.35
2019-05-05T10:56:13.790Z,2.87
2019-05-05T10:58:41.193Z,3.35
2019-05-05T11:01:08.606Z,3.42
2019-05-05T11:03:35.929Z,3.52
2019-05-05T11:06:04.563Z,4.22
2019-05-05T11:08:34.708Z,3.95
2019-05-05T11:11:01.477Z,3.80
2019-05-05T11:13:28.812Z,3.52
2019-05-05T11:15:56.258Z,2.60
2019-05-05T11:18:23.836Z,2.67
2019-05-05T11:20:51.321Z,3.30
2019-05-05T11:23:18.689Z,2.20
2019-05-05T11:25:46.025Z,2.45
2019-05-05T11:28:13.360Z,2.60
2019-05-05T11:30:42.044Z,3.15
2019-05-05T11:33:16.752Z,1.92
2019-05-05T11:35:53.764Z,1.65
2019-05-05T11:38:20.420Z,2.52
2019-05-05T11:40:47.678Z,2.55
2019-05-05T11:43:15.769Z,3.02
2019-05-05T11:45:43.837Z,2.45
2019-05-05T11:48:11.257Z,2.85
2019-05-05T11:50:38.907Z,3.55
2019-05-05T11:53:06.236Z,2.20
2019-05-05T11:55:33.640Z,2.77
2019-05-05T11:58:01.020Z,3.12
2019-05-05T12:00:28.283Z,3.30
2019-05-05T12:02:55.600Z,2.95
2019-05-05T12:05:24.404Z,2.93
2019-05-05T12:07:51.745Z,2.10
2019-05-05T12:10:30.329Z,2.58
2019-05-05T12:13:07.992Z,2.75
2019-05-05T12:15:35.353Z,2.20
2019-05-05T12:18:03.837Z,2.30
2019-05-05T12:20:35.014Z,3.12
2019-05-05T12:23:04.644Z,2.00
2019-05-05T12:25:45.625Z,1.77
2019-05-05T12:28:31.014Z,2.20
2019-05-05T12:31:00.038Z,1.98
2019-05-05T12:33:27.289Z,2.75
2019-05-05T12:35:54.672Z,1.90
2019-05-05T12:38:23.985Z,1.70
2019-05-05T12:40:50.972Z,1.32
2019-05-05T12:43:18.329Z,1.70
2019-05-05T12:46:05.417Z,1.30
2019-05-05T12:48:34.526Z,1.40
2019-05-05T12:51:04.069Z,2.20
2019-05-05T12:53:31.290Z,1.55
2019-05-05T12:55:58.604Z,3.17
2019-05-05T12:58:26.033Z,4.62
2019-05-05T13:00:58.077Z,4.65
2019-05-05T13:03:25.437Z,4.58
2019-05-05T13:05:53.571Z,4.50
2019-05-05T13:08:21.036Z,4.37
2019-05-05T13:10:48.649Z,3.33
2019-05-05T13:13:16.327Z,4.28
2019-05-05T13:15:44.321Z,4.30
2019-05-05T13:18:11.700Z,3.80
2019-05-05T13:20:44.376Z,3.50
2019-05-05T13:23:31.452Z,2.50
2019-05-05T13:26:06.650Z,2.10
2019-05-05T13:28:34.504Z,1.62
2019-05-05T13:31:01.835Z,1.65
2019-05-05T13:33:29.193Z,1.70
2019-05-05T13:35:56.601Z,1.42
2019-05-05T13:38:24.070Z,1.40
2019-05-05T13:40:51.353Z,1.85
2019-05-05T13:43:18.548Z,1.57
2019-05-05T13:45:50.112Z,1.50
2019-05-05T13:48:17.309Z,1.15
2019-05-05T13:50:49.501Z,1.40
2019-05-05T13:53:16.705Z,2.50
2019-05-05T13:55:45.978Z,2.27
2019-05-05T13:58:14.708Z,2.27
2019-05-05T14:00:44.018Z,1.52
2019-05-05T14:03:10.940Z,1.52
2019-05-05T14:05:38.437Z,1.40
2019-05-05T14:08:05.812Z,1.20
2019-05-05T14:10:33.052Z,1.07
2019-05-05T14:13:00.365Z,1.40
2019-05-05T14:15:27.589Z,1.70
2019-05-05T14:17:54.784Z,1.05
2019-05-05T14:20:23.907Z,1.50
2019-05-05T14:22:51.303Z,2.00
2019-05-05T14:25:29.040Z,2.27
2019-05-05T14:27:56.248Z,1.87
2019-05-05T14:30:25.250Z,1.62
2019-05-05T14:32:54.345Z,1.98
2019-05-05T14:35:38.100Z,2.27
2019-05-05T14:38:14.500Z,1.85
2019-05-05T14:40:44.495Z,2.10
2019-05-05T14:43:11.094Z,2.02
2019-05-05T14:45:38.685Z,1.82
2019-05-05T14:48:05.881Z,2.30
2019-05-05T14:50:34.716Z,1.80
2019-05-05T14:53:03.934Z,1.40
2019-05-05T14:55:31.209Z,1.55
2019-05-05T14:57:58.463Z,1.47
2019-05-05T15:00:26.423Z,1.12
2019-05-05T15:02:54.454Z,1.50
2019-05-05T15:05:39.493Z,1.40
2019-05-05T15:08:24.385Z,1.98
2019-05-05T15:10:54.725Z,1.50
2019-05-05T15:13:24.301Z,1.67
2019-05-05T15:15:53.733Z,1.50
2019-05-05T15:18:20.517Z,1.62
2019-05-05T15:20:47.801Z,1.50
2019-05-05T15:23:15.197Z,1.30
2019-05-05T15:25:44.538Z,0.98
2019-05-05T15:28:11.420Z,1.80
2019-05-05T15:30:38.616Z,1.60
2019-05-05T15:33:05.840Z,1.20
2019-05-05T15:35:33.970Z,1.20
2019-05-05T15:38:01.251Z,2.02
2019-05-05T15:40:28.784Z,2.27
2019-05-05T15:42:56.019Z,1.20
2019-05-05T15:45:23.580Z,1.20
2019-05-05T15:47:50.892Z,1.25
2019-05-05T15:50:18.160Z,1.57
2019-05-05T15:52:45.384Z,1.15
2019-05-05T15:55:14.103Z,1.60
2019-05-05T15:57:41.663Z,1.72
2019-05-05T16:00:09.273Z,1.30
2019-05-05T16:02:36.572Z,1.10
2019-05-05T16:05:07.369Z,1.60
2019-05-05T16:07:34.926Z,1.20
2019-05-05T16:10:04.108Z,1.12
2019-05-05T16:12:36.397Z,1.05
2019-05-05T16:15:04.835Z,1.12
2019-05-05T16:17:33.744Z,2.35
2019-05-05T16:20:04.421Z,1.20
2019-05-05T16:22:34.670Z,1.05
2019-05-05T16:25:15.257Z,1.20
2019-05-05T16:27:44.646Z,1.15
2019-05-05T16:30:14.326Z,1.42
2019-05-05T16:32:41.190Z,1.50
2019-05-05T16:35:08.569Z,0.90
2019-05-05T16:37:35.764Z,1.00
2019-05-05T16:40:06.194Z,0.90
2019-05-05T16:42:34.459Z,0.85
2019-05-05T16:45:01.797Z,1.10
2019-05-05T16:47:29.073Z,1.10
2019-05-05T16:49:56.298Z,0.70
2019-05-05T16:52:26.142Z,0.72
2019-05-05T16:55:00.693Z,1.05
2019-05-05T16:57:34.049Z,0.90
2019-05-05T16:59:57.312Z,1.55
2019-05-05T17:02:24.559Z,1.20
2019-05-05T17:04:53.771Z,1.15
2019-05-05T17:07:20.706Z,0.62
2019-05-05T17:09:47.948Z,0.90
2019-05-05T17:12:15.221Z,0.80
2019-05-05T17:14:44.483Z,0.70
2019-05-05T17:17:14.374Z,1.00
2019-05-05T17:19:44.395Z,0.60
2019-05-05T17:22:13.265Z,1.32
2019-05-05T17:24:40.557Z,0.95
2019-05-05T17:27:07.781Z,1.10
2019-05-05T17:29:34.972Z,0.90
2019-05-05T17:32:02.196Z,1.10
2019-05-05T17:34:29.745Z,0.90
2019-05-05T17:36:57.297Z,0.88
2019-05-05T17:39:26.172Z,0.50
2019-05-05T17:42:00.820Z,0.57
2019-05-05T17:44:29.653Z,0.40
2019-05-05T17:46:58.488Z,0.60
2019-05-05T17:49:30.083Z,1.25
2019-05-05T17:52:03.562Z,0.80
2019-05-05T17:54:35.653Z,1.12
2019-05-05T17:57:03.563Z,1.22
2019-05-05T17:59:30.905Z,1.30
2019-05-05T18:01:58.143Z,0.90
2019-05-05T18:04:25.668Z,0.95
2019-05-05T18:07:00.306Z,1.10
2019-05-05T18:09:35.063Z,0.75
2019-05-05T18:12:04.368Z,0.78
2019-05-05T18:14:33.572Z,0.80
2019-05-05T18:17:00.908Z,0.90
2019-05-05T18:19:28.109Z,0.53
2019-05-05T18:21:55.304Z,0.70
2019-05-05T18:24:24.270Z,0.78
2019-05-05T18:26:53.575Z,1.02
2019-05-05T18:29:20.685Z,0.90
2019-05-05T18:31:47.960Z,0.80
2019-05-05T18:34:15.597Z,0.60
2019-05-05T18:36:44.585Z,0.70
2019-05-05T18:39:13.658Z,0.57
2019-05-05T18:41:58.067Z,0.82
2019-05-05T18:44:33.488Z,1.22
2019-05-05T18:47:18.479Z,2.20
2019-05-05T18:49:46.084Z,1.80
2019-05-05T18:52:13.827Z,1.40
2019-05-05T18:54:43.451Z,1.50
2019-05-05T18:57:10.242Z,0.90
2019-05-05T18:59:37.527Z,0.82
2019-05-05T19:02:09.353Z,0.57
2019-05-05T19:04:38.309Z,0.82
2019-05-05T19:07:09.970Z,0.53
2019-05-05T19:09:37.241Z,0.53
2019-05-05T19:12:04.561Z,0.40
2019-05-05T19:14:31.770Z,0.40
2019-05-05T19:16:59.014Z,0.40
2019-05-05T19:19:27.401Z,0.40
2019-05-05T19:21:59.132Z,0.40
2019-05-05T19:24:26.361Z,0.37
2019-05-05T19:26:54.194Z,0.40
2019-05-05T19:29:24.271Z,0.45
2019-05-05T19:31:51.556Z,0.37
2019-05-05T19:34:18.861Z,0.30
2019-05-05T19:36:46.174Z,0.30
2019-05-05T19:39:13.819Z,0.60
2019-05-05T19:41:41.280Z,0.40
2019-05-05T19:44:08.636Z,0.62
2019-05-05T19:46:37.473Z,0.70
2019-05-05T19:49:06.317Z,0.60
2019-05-05T19:51:33.906Z,0.90
2019-05-05T19:54:03.579Z,0.75
2019-05-05T19:56:31.130Z,0.82
2019-05-05T19:59:01.701Z,0.50
2019-05-05T20:01:35.340Z,0.70
2019-05-05T20:03:56.262Z,0.80
2019-05-05T20:06:23.731Z,1.10
2019-05-05T20:08:51.002Z,0.85
2019-05-05T20:11:18.220Z,0.80
2019-05-05T20:13:45.504Z,0.70
2019-05-05T20:16:17.366Z,0.50
2019-05-05T20:18:44.701Z,0.50
2019-05-05T20:21:14.421Z,0.90
2019-05-05T20:23:41.172Z,0.88
2019-05-05T20:26:08.408Z,0.88
2019-05-05T20:28:35.805Z,0.75
2019-05-05T20:31:03.624Z,0.60
2019-05-05T20:33:38.467Z,0.60
2019-05-05T20:36:07.527Z,0.70
2019-05-05T20:38:36.420Z,0.60
2019-05-05T20:41:16.601Z,0.70
2019-05-05T20:43:44.876Z,0.90
2019-05-05T20:46:12.634Z,0.70
2019-05-05T20:48:41.315Z,0.70
2019-05-05T20:51:08.709Z,0.82
2019-05-05T20:53:35.976Z,0.60
2019-05-05T20:56:04.311Z,0.70
2019-05-05T20:58:33.648Z,0.42
2019-05-05T21:01:00.728Z,0.53
2019-05-05T21:03:28.000Z,0.50
2019-05-05T21:05:55.200Z,0.62
2019-05-05T21:08:23.605Z,0.65
2019-05-05T21:10:50.878Z,0.98
2019-05-05T21:13:18.165Z,0.60
2019-05-05T21:15:45.365Z,0.75
2019-05-05T21:18:14.375Z,0.60
2019-05-05T21:20:41.736Z,0.60
2019-05-05T21:23:16.796Z,0.60
2019-05-05T21:25:45.633Z,0.60
2019-05-05T21:28:14.671Z,0.60
2019-05-05T21:30:42.103Z,0.70
2019-05-05T21:33:09.373Z,0.70
2019-05-05T21:35:36.640Z,0.90
2019-05-05T21:38:04.851Z,0.50
2019-05-05T21:40:34.381Z,0.45
2019-05-05T21:43:01.120Z,0.70
2019-05-05T21:45:28.497Z,0.95
2019-05-05T21:47:55.696Z,0.75
2019-05-05T21:50:27.760Z,1.30
2019-05-05T21:53:14.052Z,0.65
2019-05-05T21:55:45.961Z,0.70
2019-05-05T21:58:14.825Z,0.68
2019-05-05T22:00:50.041Z,0.70
2019-05-05T22:03:35.502Z,0.75
2019-05-05T22:06:03.734Z,0.55
2019-05-05T22:08:31.053Z,0.50
2019-05-05T22:10:58.420Z,0.50
2019-05-05T22:13:25.984Z,0.47
2019-05-05T22:15:54.559Z,0.60
2019-05-05T22:18:21.849Z,0.40
2019-05-05T22:20:54.626Z,0.70
2019-05-05T22:23:21.952Z,1.40
2019-05-05T22:25:49.153Z,0.60
2019-05-05T22:28:16.452Z,0.70
2019-05-05T22:30:43.790Z,0.50
2019-05-05T22:33:10.989Z,0.60
2019-05-05T22:35:38.220Z,0.60
2019-05-05T22:38:06.106Z,1.00
2019-05-05T22:40:34.627Z,1.20
2019-05-05T22:43:03.669Z,1.10
2019-05-05T22:45:31.237Z,1.05
2019-05-05T22:47:58.440Z,1.00
2019-05-05T22:50:25.777Z,1.00
2019-05-05T22:52:54.566Z,1.10
2019-05-05T22:55:21.917Z,1.00
2019-05-05T22:57:49.219Z,1.32
2019-05-05T23:00:28.416Z,1.00
2019-05-05T23:02:48.876Z,1.10
2019-05-05T23:05:23.987Z,1.90
2019-05-05T23:07:51.266Z,1.30
2019-05-05T23:10:18.537Z,1.40
2019-05-05T23:12:45.840Z,1.72
2019-05-05T23:15:14.473Z,1.30
2019-05-05T23:17:46.325Z,1.47
2019-05-05T23:20:19.347Z,0.93
2019-05-05T23:22:48.247Z,1.07
2019-05-05T23:25:17.152Z,1.10
2019-05-05T23:27:48.151Z,1.57
2019-05-05T23:30:16.115Z,1.67
2019-05-05T23:32:44.020Z,1.55
2019-05-05T23:35:11.333Z,1.45
2019-05-05T23:37:38.527Z,1.80
2019-05-05T23:40:06.301Z,1.48
2019-05-05T23:42:33.970Z,1.40
2019-05-05T23:45:01.233Z,1.57
2019-05-05T23:47:28.428Z,1.47
2019-05-05T23:49:56.022Z,1.98
2019-05-05T23:52:24.004Z,1.37
2019-05-05T23:54:51.269Z,1.62
2019-05-05T23:57:18.492Z,1.22
2019-05-05T23:59:45.685Z,0.90
